Time;durP1;ratioP1;P1;durP2;ratioP2;P2;SDS_P1;SDS_P2;PMS_P1;PMS_P2;Temp;Humidity;BMP_temperature;BMP_pressure;BME280_temperature;BME280_humidity;BME280_pressure;Samples;Min_cycle;Max_cycle;Signal;HPM_P1;HPM_P2
2023/11/30 00:01:57;;;;;;;20.63;15.73;;;3.70;99.90;;;;;;5055578;28;20936;-61
2023/11/30 00:04:23;;;;;;;19.53;13.73;;;3.70;99.90;;;;;;5056111;28;20473;-61
2023/11/30 00:06:50;;;;;;;16.97;14.20;;;3.70;99.90;;;;;;5055879;28;20464;-62
2023/11/30 00:09:18;;;;;;;20.43;15.53;;;3.70;99.90;;;;;;5055801;28;20477;-61
2023/11/30 00:11:45;;;;;;;26.73;17.10;;;3.70;99.90;;;;;;5055796;28;20449;-62
2023/11/30 00:14:11;;;;;;;19.80;14.60;;;3.70;99.90;;;;;;5055478;28;20974;-62
2023/11/30 00:16:38;;;;;;;14.97;12.73;;;3.70;99.90;;;;;;5054604;28;20445;-61
2023/11/30 00:19:05;;;;;;;15.80;12.93;;;3.70;99.90;;;;;;5055702;28;20449;-61
2023/11/30 00:21:31;;;;;;;16.20;13.83;;;3.70;99.90;;;;;;5055571;28;20442;-61
2023/11/30 00:23:58;;;;;;;20.73;14.60;;;3.70;99.90;;;;;;5055238;28;21014;-61
2023/11/30 00:26:26;;;;;;;20.50;15.33;;;3.70;99.90;;;;;;5055581;28;20445;-61
2023/11/30 00:28:53;;;;;;;15.73;14.00;;;3.70;99.90;;;;;;5055646;28;20495;-62
2023/11/30 00:31:20;;;;;;;18.30;13.30;;;3.70;99.90;;;;;;5055617;28;20480;-62
2023/11/30 00:33:46;;;;;;;21.30;16.70;;;3.70;99.90;;;;;;5055515;28;20448;-62
2023/11/30 00:36:13;;;;;;;18.03;14.20;;;3.70;99.90;;;;;;5055366;28;20568;-62
2023/11/30 00:38:40;;;;;;;20.20;14.87;;;3.80;99.90;;;;;;5055306;28;20441;-61
2023/11/30 00:41:07;;;;;;;16.67;14.33;;;3.70;99.90;;;;;;5055320;28;20465;-61
2023/11/30 00:43:35;;;;;;;19.97;15.93;;;3.70;99.90;;;;;;5055085;28;20485;-61
2023/11/30 00:46:02;;;;;;;18.23;14.27;;;3.80;99.90;;;;;;5055254;28;20450;-61
2023/11/30 00:48:29;;;;;;;19.40;15.27;;;3.70;99.90;;;;;;5055201;28;20442;-61
2023/11/30 00:50:55;;;;;;;17.53;14.10;;;3.70;99.90;;;;;;5055081;28;20519;-61
2023/11/30 00:53:22;;;;;;;22.50;16.43;;;3.70;99.90;;;;;;5055083;28;20442;-61
2023/11/30 00:55:49;;;;;;;18.70;16.20;;;3.70;99.90;;;;;;5055131;28;20449;-61
2023/11/30 00:58:15;;;;;;;23.43;15.57;;;3.70;99.90;;;;;;5054909;28;20445;-61
2023/11/30 01:00:43;;;;;;;17.47;15.67;;;3.70;99.90;;;;;;5053835;28;20469;-61
2023/11/30 01:03:10;;;;;;;19.37;15.80;;;3.70;99.90;;;;;;5054547;28;20449;-62
2023/11/30 01:05:37;;;;;;;19.33;15.40;;;3.70;99.90;;;;;;5054608;28;20453;-61
2023/11/30 01:08:03;;;;;;;19.83;16.33;;;3.70;99.90;;;;;;5054668;28;20441;-61
2023/11/30 01:10:30;;;;;;;27.73;17.43;;;3.70;99.90;;;;;;5054477;28;20465;-61
2023/11/30 01:12:57;;;;;;;19.63;15.37;;;3.70;99.90;;;;;;5054665;28;20449;-62
2023/11/30 01:15:23;;;;;;;19.10;16.20;;;3.70;99.90;;;;;;5054183;28;20460;-62
2023/11/30 01:17:51;;;;;;;20.57;15.77;;;3.80;99.90;;;;;;5054356;28;20480;-61
2023/11/30 01:20:18;;;;;;;21.90;16.33;;;3.70;99.90;;;;;;5054641;28;20461;-61
2023/11/30 01:22:45;;;;;;;18.87;15.53;;;3.80;99.90;;;;;;5054243;28;20511;-61
2023/11/30 01:25:12;;;;;;;20.20;15.57;;;3.80;99.90;;;;;;5054259;28;20476;-61
2023/11/30 01:27:39;;;;;;;19.87;16.20;;;3.80;99.90;;;;;;5054187;28;20521;-61
2023/11/30 01:30:06;;;;;;;19.60;14.17;;;3.80;99.90;;;;;;5054155;28;20472;-61
2023/11/30 01:32:34;;;;;;;20.70;17.50;;;3.80;99.90;;;;;;5054488;28;20442;-61
2023/11/30 01:35:03;;;;;;;27.50;17.00;;;3.80;99.90;;;;;;5053949;28;20845;-61
2023/11/30 01:37:30;;;;;;;22.23;16.97;;;3.80;99.90;;;;;;5053857;28;20827;-61
2023/11/30 01:39:57;;;;;;;17.13;15.20;;;3.80;99.90;;;;;;5054069;28;20472;-61
2023/11/30 01:42:23;;;;;;;19.87;15.30;;;3.80;99.90;;;;;;5054073;28;20445;-61
2023/11/30 01:44:50;;;;;;;20.43;15.43;;;3.80;99.90;;;;;;5054026;28;20488;-61
2023/11/30 01:47:17;;;;;;;19.90;15.80;;;3.80;99.90;;;;;;5053757;28;20442;-61
2023/11/30 01:49:44;;;;;;;20.53;17.03;;;3.80;99.90;;;;;;5053925;28;20468;-61
2023/11/30 01:52:12;;;;;;;22.03;15.50;;;3.80;99.90;;;;;;5053651;28;20936;-61
2023/11/30 01:54:39;;;;;;;23.10;16.90;;;3.80;99.90;;;;;;5053899;28;20441;-60
2023/11/30 01:57:06;;;;;;;19.73;15.67;;;3.80;99.90;;;;;;5053727;28;20472;-61
2023/11/30 01:59:33;;;;;;;19.53;15.87;;;3.90;99.90;;;;;;5053674;28;20465;-61
2023/11/30 02:02:00;;;;;;;21.57;15.50;;;3.90;99.90;;;;;;5053762;28;20861;-61
2023/11/30 02:04:29;;;;;;;23.23;15.00;;;3.90;99.90;;;;;;5053715;28;20513;-61
2023/11/30 02:06:56;;;;;;;20.73;16.23;;;3.90;99.90;;;;;;5053682;28;20444;-61
2023/11/30 02:09:24;;;;;;;25.90;16.03;;;3.90;99.90;;;;;;5053375;28;20466;-61
2023/11/30 02:11:51;;;;;;;20.87;15.37;;;3.90;99.90;;;;;;5053627;28;20533;-61
2023/11/30 02:14:18;;;;;;;20.47;15.53;;;3.90;99.90;;;;;;5053504;28;20452;-61
2023/11/30 02:16:45;;;;;;;17.73;14.70;;;3.90;99.90;;;;;;5053447;28;20523;-61
2023/11/30 02:19:12;;;;;;;20.47;15.33;;;3.90;99.90;;;;;;5053103;28;20474;-61
2023/11/30 02:21:38;;;;;;;21.50;15.73;;;4.00;99.90;;;;;;5053081;28;20452;-62
2023/11/30 02:24:07;;;;;;;22.30;16.50;;;4.00;99.90;;;;;;5053448;28;20480;-61
2023/11/30 02:26:34;;;;;;;19.20;16.07;;;3.90;99.90;;;;;;5053469;28;20488;-61
2023/11/30 02:29:00;;;;;;;20.03;15.20;;;3.90;99.90;;;;;;5053374;28;20441;-62
2023/11/30 02:31:27;;;;;;;18.50;14.67;;;3.90;99.90;;;;;;5053383;28;20441;-61
2023/11/30 02:33:54;;;;;;;17.70;15.80;;;3.90;99.90;;;;;;5053080;28;20450;-61
2023/11/30 02:36:20;;;;;;;18.77;15.00;;;3.90;99.90;;;;;;5053282;28;20444;-61
2023/11/30 02:38:47;;;;;;;23.00;16.37;;;3.90;99.90;;;;;;5053028;28;20441;-61
2023/11/30 02:41:16;;;;;;;25.00;16.80;;;3.90;99.90;;;;;;5052454;28;20462;-61
2023/11/30 02:43:43;;;;;;;18.90;16.43;;;3.90;99.90;;;;;;5053122;28;20540;-61
2023/11/30 02:46:10;;;;;;;21.93;15.37;;;3.90;99.90;;;;;;5053227;28;20449;-61
2023/11/30 02:48:37;;;;;;;21.03;16.37;;;3.90;99.90;;;;;;5053024;28;20444;-61
2023/11/30 02:51:04;;;;;;;19.30;15.70;;;3.90;99.90;;;;;;5053046;28;20461;-61
2023/11/30 02:53:31;;;;;;;22.37;16.70;;;3.90;99.90;;;;;;5052829;28;20958;-61
2023/11/30 02:55:59;;;;;;;24.63;16.37;;;3.90;99.90;;;;;;5053003;28;20442;-61
2023/11/30 02:58:27;;;;;;;22.10;14.27;;;3.90;99.90;;;;;;5052773;28;20437;-61
2023/11/30 03:00:54;;;;;;;18.63;15.00;;;3.90;99.90;;;;;;5053023;28;20886;-61
2023/11/30 03:03:22;;;;;;;18.83;14.73;;;3.90;99.90;;;;;;5052838;28;20456;-61
2023/11/30 03:05:49;;;;;;;19.00;14.27;;;3.90;99.90;;;;;;5052960;28;20481;-61
2023/11/30 03:08:16;;;;;;;20.63;15.93;;;3.90;99.90;;;;;;5053012;28;20449;-61
2023/11/30 03:10:42;;;;;;;25.10;16.90;;;3.90;99.90;;;;;;5052969;28;20469;-61
2023/11/30 03:13:09;;;;;;;17.83;13.90;;;3.90;99.90;;;;;;5052634;28;20868;-61
2023/11/30 03:15:44;;;;;;;18.60;15.27;;;3.90;99.90;;;;;;5052904;28;20865;-61
2023/11/30 03:18:10;;;;;;;18.70;13.77;;;3.90;99.90;;;;;;5052709;28;20429;-61
2023/11/30 03:20:37;;;;;;;18.80;14.07;;;3.90;99.90;;;;;;5052806;28;20967;-61
2023/11/30 03:23:04;;;;;;;17.23;13.83;;;3.90;99.90;;;;;;5052899;28;20804;-62
2023/11/30 03:25:32;;;;;;;17.63;14.20;;;3.90;99.90;;;;;;5052716;28;20508;-62
2023/11/30 03:27:59;;;;;;;18.20;14.60;;;3.90;99.90;;;;;;5052752;28;20578;-61
2023/11/30 03:30:26;;;;;;;19.83;13.20;;;4.00;99.90;;;;;;5052759;28;20465;-61
2023/11/30 03:32:54;;;;;;;17.70;14.30;;;4.00;99.90;;;;;;5052731;28;20452;-62
2023/11/30 03:35:21;;;;;;;15.87;13.47;;;4.00;99.90;;;;;;5052581;28;20442;-61
2023/11/30 03:37:48;;;;;;;16.03;12.80;;;4.00;99.90;;;;;;5052724;28;20472;-61
2023/11/30 03:40:15;;;;;;;15.67;13.87;;;4.00;99.90;;;;;;5052608;28;20527;-61
2023/11/30 03:42:42;;;;;;;15.53;12.50;;;4.00;99.90;;;;;;5052755;28;20437;-62
2023/11/30 03:45:09;;;;;;;17.30;12.70;;;4.00;99.90;;;;;;5052557;28;20477;-62
2023/11/30 03:47:36;;;;;;;15.80;13.20;;;4.00;99.90;;;;;;5052580;28;20471;-62
2023/11/30 03:50:04;;;;;;;16.00;12.80;;;4.00;99.90;;;;;;5052569;28;20464;-62
2023/11/30 03:52:31;;;;;;;15.27;12.57;;;4.00;99.90;;;;;;5054621;28;20449;-61
2023/11/30 03:54:58;;;;;;;15.27;12.83;;;4.00;99.90;;;;;;5055970;28;20441;-61
2023/11/30 03:57:24;;;;;;;15.13;13.27;;;4.00;99.90;;;;;;5055743;28;20817;-61
2023/11/30 03:59:52;;;;;;;17.63;13.00;;;4.00;99.90;;;;;;5056014;28;20476;-62
2023/11/30 04:02:19;;;;;;;17.40;13.90;;;4.00;99.90;;;;;;5055961;28;20448;-62
2023/11/30 04:04:45;;;;;;;14.70;13.20;;;4.00;99.90;;;;;;5055817;28;20484;-62
2023/11/30 04:07:13;;;;;;;15.87;12.20;;;4.00;99.90;;;;;;5055881;28;20552;-61
2023/11/30 04:09:40;;;;;;;18.07;13.60;;;4.00;99.90;;;;;;5055818;28;20465;-61
2023/11/30 04:12:07;;;;;;;16.70;12.37;;;4.00;99.90;;;;;;5055727;28;20442;-62
2023/11/30 04:14:34;;;;;;;16.90;12.87;;;4.00;99.90;;;;;;5055391;28;20811;-62
2023/11/30 04:17:00;;;;;;;14.97;12.57;;;4.00;99.90;;;;;;5055741;28;20441;-61
2023/11/30 04:19:27;;;;;;;15.17;12.20;;;4.00;99.90;;;;;;5055650;28;20457;-61
2023/11/30 04:21:54;;;;;;;14.90;12.47;;;3.90;99.90;;;;;;5055784;28;20453;-61
2023/11/30 04:24:22;;;;;;;17.00;13.23;;;3.90;99.90;;;;;;5055280;28;20850;-61
2023/11/30 04:26:48;;;;;;;13.30;11.27;;;3.80;99.90;;;;;;5055494;28;20827;-61
2023/11/30 04:29:15;;;;;;;17.70;12.03;;;3.80;99.90;;;;;;5055451;28;20474;-61
2023/11/30 04:31:42;;;;;;;15.23;11.43;;;3.80;99.90;;;;;;5055439;28;20456;-62
2023/11/30 04:34:09;;;;;;;14.10;12.10;;;3.80;99.90;;;;;;5055179;28;20496;-62
2023/11/30 04:36:36;;;;;;;15.07;11.40;;;3.80;99.90;;;;;;5055311;28;20445;-62
2023/11/30 04:39:02;;;;;;;15.57;12.97;;;3.80;99.90;;;;;;5055231;28;20939;-62
2023/11/30 04:41:30;;;;;;;14.33;11.50;;;3.80;99.90;;;;;;5055319;28;20461;-61
2023/11/30 04:43:57;;;;;;;14.60;11.27;;;3.90;99.90;;;;;;5055584;28;20441;-61
2023/11/30 04:46:24;;;;;;;16.10;12.00;;;3.90;99.90;;;;;;5055129;28;20478;-61
2023/11/30 04:48:50;;;;;;;14.00;12.20;;;3.90;99.90;;;;;;5055031;28;20450;-61
2023/11/30 04:51:17;;;;;;;14.60;12.17;;;3.90;99.90;;;;;;5055023;28;20453;-62
2023/11/30 04:53:44;;;;;;;15.20;11.47;;;3.90;99.90;;;;;;5055332;28;20617;-61
2023/11/30 04:56:11;;;;;;;16.03;11.53;;;3.90;99.90;;;;;;5054863;28;20442;-61
2023/11/30 04:58:39;;;;;;;14.70;12.17;;;3.90;99.90;;;;;;5055007;28;20536;-61
2023/11/30 05:01:06;;;;;;;16.00;11.60;;;3.90;99.90;;;;;;5054548;28;20465;-61
2023/11/30 05:03:33;;;;;;;13.97;11.73;;;3.90;99.90;;;;;;5054481;28;20449;-61
2023/11/30 05:05:59;;;;;;;19.33;12.03;;;3.90;99.90;;;;;;5054838;28;20922;-61
2023/11/30 05:08:26;;;;;;;15.00;11.67;;;3.90;99.90;;;;;;5054794;28;20445;-61
2023/11/30 05:10:53;;;;;;;12.70;11.03;;;4.00;99.90;;;;;;5054744;28;20462;-61
2023/11/30 05:13:19;;;;;;;16.33;11.57;;;3.90;99.90;;;;;;5054124;28;20488;-61
2023/11/30 05:15:47;;;;;;;15.17;11.67;;;3.80;99.90;;;;;;5054344;28;20422;-61
2023/11/30 05:18:14;;;;;;;18.70;11.80;;;3.90;99.90;;;;;;5054646;28;20448;-61
2023/11/30 05:20:41;;;;;;;16.20;12.93;;;3.90;99.90;;;;;;5054299;28;20465;-61
2023/11/30 05:23:08;;;;;;;14.87;12.27;;;3.90;99.90;;;;;;5054572;28;20491;-61
2023/11/30 05:25:34;;;;;;;15.63;13.27;;;3.90;99.90;;;;;;5054367;28;20482;-62
2023/11/30 05:28:02;;;;;;;17.50;13.67;;;3.90;99.90;;;;;;5054399;28;20449;-62
2023/11/30 05:30:29;;;;;;;15.53;12.17;;;3.90;99.90;;;;;;5054206;28;20468;-62
2023/11/30 05:32:57;;;;;;;17.17;13.47;;;3.90;99.90;;;;;;5054270;28;20449;-61
2023/11/30 05:35:23;;;;;;;16.70;13.47;;;3.90;99.90;;;;;;5054226;28;20438;-61
2023/11/30 05:37:50;;;;;;;16.17;12.43;;;3.90;99.90;;;;;;5054169;28;20446;-61
2023/11/30 05:40:19;;;;;;;14.40;12.83;;;3.80;99.90;;;;;;5054106;28;20461;-62
2023/11/30 05:42:45;;;;;;;15.83;12.83;;;3.80;99.90;;;;;;5054091;28;20452;-61
2023/11/30 05:45:12;;;;;;;14.77;12.47;;;3.90;99.90;;;;;;5054249;28;20476;-61
2023/11/30 05:47:39;;;;;;;15.27;12.67;;;3.80;99.90;;;;;;5054003;28;20449;-61
2023/11/30 05:50:09;;;;;;;15.73;13.17;;;3.80;99.90;;;;;;5053901;28;20466;-61
2023/11/30 05:52:36;;;;;;;14.37;12.87;;;3.80;99.90;;;;;;5053957;28;20422;-61
2023/11/30 05:55:05;;;;;;;16.20;13.23;;;3.90;99.90;;;;;;5053723;28;20461;-61
2023/11/30 05:57:31;;;;;;;21.20;12.03;;;3.80;99.90;;;;;;5054639;28;20458;-61
2023/11/30 05:59:58;;;;;;;17.07;12.70;;;3.90;99.90;;;;;;5053751;28;20539;-61
2023/11/30 06:02:26;;;;;;;17.63;13.93;;;3.90;99.90;;;;;;5053659;28;21001;-61
2023/11/30 06:04:54;;;;;;;16.40;13.03;;;3.90;99.90;;;;;;5053716;28;20491;-61
2023/11/30 06:07:23;;;;;;;20.13;12.90;;;3.90;99.90;;;;;;5053396;28;20446;-61
2023/11/30 06:09:49;;;;;;;18.30;13.03;;;3.90;99.90;;;;;;5053529;28;20504;-61
2023/11/30 06:12:16;;;;;;;21.30;14.03;;;3.90;99.90;;;;;;5053637;28;20445;-61
2023/11/30 06:14:43;;;;;;;18.50;13.73;;;3.90;99.90;;;;;;5052617;28;20827;-61
2023/11/30 06:17:10;;;;;;;15.23;13.37;;;3.90;99.90;;;;;;5053238;28;20441;-61
2023/11/30 06:19:36;;;;;;;17.40;12.90;;;3.90;99.90;;;;;;5053102;28;20983;-62
2023/11/30 06:22:03;;;;;;;17.63;13.00;;;3.90;99.90;;;;;;5053191;28;20819;-61
2023/11/30 06:24:31;;;;;;;17.20;13.87;;;3.90;99.90;;;;;;5053503;28;20449;-61
2023/11/30 06:26:58;;;;;;;17.60;12.63;;;3.90;99.90;;;;;;5052974;28;21037;-61
2023/11/30 06:29:25;;;;;;;18.13;13.67;;;3.90;99.90;;;;;;5053044;28;21009;-61
2023/11/30 06:31:51;;;;;;;18.30;13.13;;;3.90;99.90;;;;;;5053355;28;20457;-61
2023/11/30 06:34:18;;;;;;;16.90;12.37;;;4.00;99.90;;;;;;5053283;28;20452;-61
2023/11/30 06:36:45;;;;;;;15.07;11.90;;;3.90;99.90;;;;;;5053190;28;20434;-61
2023/11/30 06:39:11;;;;;;;15.27;11.70;;;3.90;99.90;;;;;;5052979;28;20465;-61
2023/11/30 06:41:39;;;;;;;16.83;13.57;;;3.90;99.90;;;;;;5053267;28;20472;-61
2023/11/30 06:44:06;;;;;;;18.47;12.17;;;4.00;99.90;;;;;;5053294;28;20473;-61
2023/11/30 06:46:33;;;;;;;20.60;14.63;;;3.90;99.90;;;;;;5053210;28;20500;-61
2023/11/30 06:48:59;;;;;;;16.63;13.80;;;4.00;99.90;;;;;;5053106;28;20433;-61
2023/11/30 06:51:26;;;;;;;17.90;12.20;;;4.00;99.90;;;;;;5053107;28;20453;-61
2023/11/30 06:53:53;;;;;;;18.23;14.27;;;4.00;99.90;;;;;;5052737;28;20446;-61
2023/11/30 06:56:19;;;;;;;16.47;12.60;;;4.00;99.90;;;;;;5053050;28;20434;-61
2023/11/30 06:58:47;;;;;;;15.93;13.27;;;4.00;99.90;;;;;;5053117;28;20449;-61
2023/11/30 07:01:14;;;;;;;13.87;12.40;;;4.00;99.90;;;;;;5053103;28;20505;-61
2023/11/30 07:03:41;;;;;;;14.43;12.00;;;4.00;99.90;;;;;;5053031;28;20445;-61
2023/11/30 07:06:08;;;;;;;14.33;12.80;;;4.00;99.90;;;;;;5052765;28;20480;-62
2023/11/30 07:08:34;;;;;;;24.27;13.20;;;4.10;99.90;;;;;;5052972;28;20880;-61
2023/11/30 07:11:01;;;;;;;14.93;12.23;;;4.10;99.90;;;;;;5052926;28;20477;-61
2023/11/30 07:13:28;;;;;;;17.07;12.53;;;4.10;99.90;;;;;;5052828;28;20493;-62
2023/11/30 07:15:56;;;;;;;18.07;13.80;;;4.10;99.90;;;;;;5052896;28;20422;-61
2023/11/30 07:18:23;;;;;;;17.83;13.83;;;4.10;99.90;;;;;;5053035;28;20449;-61
2023/11/30 07:20:49;;;;;;;16.17;13.30;;;4.10;99.90;;;;;;5052894;28;20473;-61
2023/11/30 07:23:16;;;;;;;18.00;13.10;;;4.10;99.90;;;;;;5052899;28;20450;-61
2023/11/30 07:25:43;;;;;;;17.17;13.00;;;4.10;99.90;;;;;;5053655;28;20477;-60
2023/11/30 07:28:09;;;;;;;20.37;15.37;;;4.10;99.90;;;;;;5056713;28;20452;-61
2023/11/30 07:30:40;;;;;;;20.70;15.10;;;4.00;99.90;;;;;;5056249;28;20465;-61
2023/11/30 07:33:08;;;;;;;24.43;16.13;;;4.00;99.90;;;;;;5056563;28;20430;-61
2023/11/30 07:35:36;;;;;;;28.37;19.30;;;4.00;99.90;;;;;;5056331;28;20448;-61
2023/11/30 07:38:03;;;;;;;30.47;19.27;;;4.10;99.90;;;;;;5056447;28;20464;-61
2023/11/30 07:40:32;;;;;;;30.83;18.93;;;4.10;99.90;;;;;;5056367;28;20472;-61
2023/11/30 07:42:58;;;;;;;30.30;19.70;;;4.10;99.90;;;;;;5056370;28;20445;-61
2023/11/30 07:45:25;;;;;;;32.40;18.50;;;4.20;99.90;;;;;;5056268;28;20449;-61
2023/11/30 07:47:52;;;;;;;32.30;19.17;;;4.20;99.90;;;;;;5056420;28;20445;-61
2023/11/30 07:50:20;;;;;;;26.73;17.03;;;4.20;99.90;;;;;;5056359;28;20464;-61
2023/11/30 07:52:47;;;;;;;23.57;16.53;;;4.20;99.90;;;;;;5056283;28;20445;-61
2023/11/30 07:55:13;;;;;;;22.87;15.87;;;4.30;99.90;;;;;;5056194;28;20448;-61
2023/11/30 07:57:39;;;;;;;19.57;14.53;;;4.30;99.90;;;;;;5056273;28;21030;-61
2023/11/30 08:00:08;;;;;;;23.07;15.73;;;4.30;99.90;;;;;;5056183;28;20465;-61
2023/11/30 08:02:35;;;;;;;19.57;13.83;;;4.40;99.90;;;;;;5056200;28;20453;-61
2023/11/30 08:05:04;;;;;;;19.73;13.90;;;4.40;99.90;;;;;;5056172;28;20532;-61
2023/11/30 08:07:33;;;;;;;18.83;13.87;;;4.40;99.90;;;;;;5056062;28;20485;-61
2023/11/30 08:09:59;;;;;;;21.30;15.00;;;4.50;99.90;;;;;;5055898;28;20458;-61
2023/11/30 08:12:26;;;;;;;18.03;13.13;;;4.50;99.90;;;;;;5056037;28;20442;-61
2023/11/30 08:14:53;;;;;;;20.57;15.50;;;4.60;99.90;;;;;;5055537;28;20457;-61
2023/11/30 08:17:20;;;;;;;17.37;13.37;;;4.60;99.90;;;;;;5055691;28;20473;-61
2023/11/30 08:19:48;;;;;;;18.70;14.07;;;4.70;99.90;;;;;;5055953;28;20501;-62
2023/11/30 08:22:15;;;;;;;19.40;15.80;;;4.70;99.90;;;;;;5055840;28;20441;-62
2023/11/30 08:24:44;;;;;;;18.93;13.67;;;4.70;99.90;;;;;;5055887;28;20445;-61
2023/11/30 08:27:10;;;;;;;18.00;14.00;;;4.80;99.90;;;;;;5055496;28;20490;-61
2023/11/30 08:29:37;;;;;;;18.40;13.80;;;4.80;99.90;;;;;;5055761;28;20461;-61
2023/11/30 08:32:05;;;;;;;23.90;13.73;;;4.90;99.90;;;;;;5055215;28;20441;-61
2023/11/30 08:34:31;;;;;;;20.53;12.70;;;4.90;99.90;;;;;;5055283;28;20450;-61
2023/11/30 08:36:59;;;;;;;19.17;14.73;;;4.90;99.90;;;;;;5055528;28;20441;-61
2023/11/30 08:39:27;;;;;;;23.97;16.00;;;4.90;99.90;;;;;;5054767;28;20984;-61
2023/11/30 08:41:55;;;;;;;17.50;13.00;;;5.00;99.90;;;;;;5055116;28;20548;-61
2023/11/30 08:44:23;;;;;;;20.67;14.90;;;5.10;99.90;;;;;;5055034;28;20449;-60
2023/11/30 08:46:50;;;;;;;20.30;14.20;;;5.10;99.90;;;;;;5054819;28;20531;-61
2023/11/30 08:49:17;;;;;;;19.67;14.30;;;5.10;99.90;;;;;;5055095;28;20469;-61
2023/11/30 08:51:44;;;;;;;19.37;14.10;;;5.20;99.90;;;;;;5054776;28;20449;-60
2023/11/30 08:54:11;;;;;;;19.57;14.93;;;5.20;99.90;;;;;;5055022;28;20457;-60
2023/11/30 08:56:38;;;;;;;19.43;14.50;;;5.30;99.90;;;;;;5054896;28;20441;-60
2023/11/30 08:59:06;;;;;;;20.83;15.00;;;5.30;99.90;;;;;;5056651;28;20492;-59
2023/11/30 09:01:33;;;;;;;21.43;16.77;;;5.40;99.90;;;;;;5074936;28;20444;-60
2023/11/30 09:04:02;;;;;;;20.40;14.87;;;5.40;99.90;;;;;;5074939;28;20871;-59
2023/11/30 09:06:29;;;;;;;19.43;14.90;;;5.50;99.90;;;;;;5075575;28;20515;-60
2023/11/30 09:08:56;;;;;;;19.63;13.97;;;5.50;99.90;;;;;;5074770;28;20448;-60
2023/11/30 09:11:23;;;;;;;18.50;13.70;;;5.60;99.90;;;;;;5074368;28;20943;-60
2023/11/30 09:13:50;;;;;;;18.07;13.90;;;5.60;99.90;;;;;;5074661;28;20492;-60
2023/11/30 09:16:18;;;;;;;20.20;13.90;;;5.60;99.90;;;;;;5074391;28;20441;-60
2023/11/30 09:18:44;;;;;;;18.80;13.60;;;5.70;99.90;;;;;;5074559;28;20531;-60
2023/11/30 09:21:11;;;;;;;24.57;13.60;;;5.80;99.90;;;;;;5074454;28;20464;-60
2023/11/30 09:23:38;;;;;;;15.90;12.67;;;5.80;99.90;;;;;;5074631;28;20448;-60
2023/11/30 09:26:06;;;;;;;15.17;12.33;;;5.80;99.90;;;;;;5074258;28;20480;-59
2023/11/30 09:28:33;;;;;;;16.13;13.47;;;5.90;99.90;;;;;;5074346;28;20453;-60
2023/11/30 09:31:03;;;;;;;14.80;12.07;;;6.00;99.90;;;;;;5073967;28;20967;-60
2023/11/30 09:33:31;;;;;;;18.90;14.43;;;6.00;99.90;;;;;;5074179;28;20440;-60
2023/11/30 09:35:59;;;;;;;14.90;12.00;;;6.10;99.90;;;;;;5074270;28;20444;-60
2023/11/30 09:38:25;;;;;;;17.50;12.83;;;6.00;99.90;;;;;;5074912;28;20447;-60
2023/11/30 09:40:52;;;;;;;16.37;12.70;;;6.00;99.90;;;;;;5074024;28;20461;-59
2023/11/30 09:43:20;;;;;;;17.67;13.83;;;6.00;99.90;;;;;;5074063;28;20448;-60
2023/11/30 09:45:49;;;;;;;16.70;12.57;;;6.00;99.90;;;;;;5074052;28;20447;-60
2023/11/30 09:48:16;;;;;;;17.80;13.30;;;6.00;99.90;;;;;;5073640;28;20484;-60
2023/11/30 09:50:44;;;;;;;15.90;12.67;;;5.90;99.90;;;;;;5073549;28;20977;-60
2023/11/30 09:53:11;;;;;;;17.90;12.73;;;5.90;99.90;;;;;;5073900;28;20447;-60
2023/11/30 09:55:38;;;;;;;18.10;13.00;;;5.90;99.90;;;;;;5073670;28;20446;-61
2023/11/30 09:58:05;;;;;;;17.60;13.60;;;5.90;99.90;;;;;;5073790;28;20490;-61
2023/11/30 10:00:32;;;;;;;15.67;12.40;;;5.80;99.90;;;;;;5073570;28;21009;-61
2023/11/30 10:02:59;;;;;;;14.63;12.27;;;5.80;99.90;;;;;;5073399;28;20856;-61
2023/11/30 10:05:28;;;;;;;20.33;13.10;;;5.80;99.90;;;;;;5074104;28;20451;-62
2023/11/30 10:07:58;;;;;;;17.23;13.00;;;5.80;99.90;;;;;;5073657;28;20477;-61
2023/11/30 10:10:24;;;;;;;22.13;13.10;;;5.80;99.90;;;;;;5073596;28;20472;-61
2023/11/30 10:12:52;;;;;;;16.27;12.33;;;5.80;99.90;;;;;;5073767;28;20449;-61
2023/11/30 10:15:20;;;;;;;18.03;12.77;;;5.80;99.90;;;;;;5073068;28;20503;-61
2023/11/30 10:17:47;;;;;;;15.70;12.43;;;5.80;99.90;;;;;;5073215;28;20938;-62
2023/11/30 10:20:15;;;;;;;15.07;11.83;;;5.80;99.90;;;;;;5073485;28;20461;-62
2023/11/30 10:22:42;;;;;;;23.83;14.07;;;5.80;99.90;;;;;;5073553;28;20495;-61
2023/11/30 10:25:12;;;;;;;16.00;12.37;;;5.80;99.90;;;;;;5073648;28;20437;-60
2023/11/30 10:27:41;;;;;;;15.73;12.63;;;5.80;99.90;;;;;;5073949;28;20530;-61
2023/11/30 10:30:10;;;;;;;17.57;12.60;;;5.80;99.90;;;;;;5073347;28;20491;-61
2023/11/30 10:32:39;;;;;;;19.60;12.80;;;5.80;99.90;;;;;;5073449;28;20483;-61
2023/11/30 10:35:07;;;;;;;18.03;12.20;;;5.80;99.90;;;;;;5073274;28;20448;-61
2023/11/30 10:37:40;;;;;;;14.83;12.50;;;5.90;99.90;;;;;;5073482;28;20437;-61
2023/11/30 10:40:12;;;;;;;17.17;13.07;;;6.00;99.90;;;;;;5073555;28;20559;-61
2023/11/30 10:42:41;;;;;;;19.67;13.80;;;6.10;99.90;;;;;;5073424;28;20482;-61
2023/11/30 10:45:11;;;;;;;14.43;11.93;;;6.20;99.90;;;;;;5073223;28;20456;-60
2023/11/30 10:47:39;;;;;;;15.23;12.40;;;6.40;99.90;;;;;;5072815;28;20998;-60
2023/11/30 10:50:06;;;;;;;13.97;11.73;;;6.50;99.90;;;;;;5073057;28;20464;-60
2023/11/30 10:52:35;;;;;;;16.80;12.30;;;6.70;99.90;;;;;;5073165;28;20495;-60
2023/11/30 10:55:06;;;;;;;15.27;11.60;;;6.80;99.90;;;;;;5073030;28;20476;-59
2023/11/30 10:57:34;;;;;;;17.00;13.27;;;7.00;99.90;;;;;;5073102;28;20432;-60
2023/11/30 11:00:02;;;;;;;15.50;12.97;;;7.20;99.90;;;;;;5073284;28;20464;-60
2023/11/30 11:02:36;;;;;;;15.30;13.03;;;7.50;99.90;;;;;;5076904;28;20943;-60
2023/11/30 11:05:08;;;;;;;17.03;13.23;;;7.80;99.90;;;;;;5077305;28;20428;-60
2023/11/30 11:07:35;;;;;;;13.67;12.27;;;8.00;99.90;;;;;;5077106;28;20514;-60
2023/11/30 11:10:06;;;;;;;16.93;12.53;;;8.20;99.80;;;;;;5077020;28;20464;-61
2023/11/30 11:12:39;;;;;;;17.37;14.17;;;8.30;99.20;;;;;;5077089;28;20483;-61
2023/11/30 11:15:08;;;;;;;15.20;13.20;;;8.50;98.70;;;;;;5076665;28;20464;-61
2023/11/30 11:17:44;;;;;;;18.93;13.17;;;8.60;98.40;;;;;;5076561;28;20460;-61
2023/11/30 11:20:20;;;;;;;15.30;12.90;;;8.70;97.90;;;;;;5076806;28;20460;-61
2023/11/30 11:22:47;;;;;;;16.77;12.43;;;8.90;97.50;;;;;;5076959;28;20463;-60
2023/11/30 11:25:16;;;;;;;16.87;12.90;;;9.10;97.00;;;;;;5076358;28;20976;-60
2023/11/30 11:27:44;;;;;;;13.53;11.87;;;9.30;96.40;;;;;;5076649;28;20511;-61
2023/11/30 11:30:13;;;;;;;15.20;12.50;;;9.40;95.80;;;;;;5076851;28;20464;-61
2023/11/30 11:32:42;;;;;;;13.33;11.87;;;9.60;95.30;;;;;;5076548;28;20946;-61
2023/11/30 11:35:10;;;;;;;12.50;11.03;;;9.70;94.80;;;;;;5076531;28;20539;-61
2023/11/30 11:37:36;;;;;;;16.13;12.93;;;9.90;94.10;;;;;;5076501;28;20494;-61
2023/11/30 11:40:04;;;;;;;15.37;13.37;;;10.00;93.00;;;;;;5076122;28;20886;-61
2023/11/30 11:42:32;;;;;;;15.87;14.07;;;10.00;92.50;;;;;;5076486;28;20472;-61
2023/11/30 11:45:01;;;;;;;19.77;12.53;;;10.00;92.10;;;;;;5076417;28;20840;-61
2023/11/30 11:47:29;;;;;;;18.37;14.90;;;9.90;92.40;;;;;;5076245;28;20520;-61
2023/11/30 11:49:55;;;;;;;16.07;13.67;;;9.90;92.00;;;;;;5076166;28;20461;-61
2023/11/30 11:52:23;;;;;;;16.33;13.40;;;9.90;91.90;;;;;;5076283;28;20437;-61
2023/11/30 11:54:59;;;;;;;15.07;12.93;;;10.00;91.50;;;;;;5076045;28;20447;-60
2023/11/30 11:57:32;;;;;;;15.17;12.23;;;10.10;91.30;;;;;;5076035;28;20432;-61
2023/11/30 12:00:00;;;;;;;19.17;14.93;;;10.10;91.00;;;;;;5065699;28;20490;-60
2023/11/30 12:02:27;;;;;;;15.73;13.73;;;10.10;90.80;;;;;;5056238;28;20448;-61
2023/11/30 12:04:53;;;;;;;15.23;13.40;;;10.00;90.60;;;;;;5056088;28;20556;-61
2023/11/30 12:07:20;;;;;;;16.20;13.20;;;10.00;90.40;;;;;;5055972;28;20487;-61
2023/11/30 12:09:54;;;;;;;14.67;12.20;;;9.90;91.00;;;;;;5055934;28;20469;-61
2023/11/30 12:12:21;;;;;;;13.93;12.43;;;9.90;91.00;;;;;;5054670;28;20434;-61
2023/11/30 12:14:48;;;;;;;14.13;11.40;;;9.90;90.90;;;;;;5055694;28;20477;-62
2023/11/30 12:17:16;;;;;;;13.97;12.47;;;10.10;90.40;;;;;;5055588;28;20441;-61
2023/11/30 12:19:43;;;;;;;15.23;12.27;;;10.10;90.10;;;;;;5055415;28;20468;-60
2023/11/30 12:22:10;;;;;;;13.47;11.27;;;10.00;89.90;;;;;;5055604;28;20552;-60
2023/11/30 12:24:36;;;;;;;12.20;10.47;;;9.90;90.50;;;;;;5055647;28;20522;-60
2023/11/30 12:27:03;;;;;;;16.33;11.27;;;9.80;90.60;;;;;;5055483;28;20492;-61
2023/11/30 12:29:30;;;;;;;12.93;11.30;;;9.60;90.70;;;;;;5055481;28;20831;-61
2023/11/30 12:31:56;;;;;;;13.33;11.77;;;9.60;90.90;;;;;;5055556;28;20468;-61
2023/11/30 12:34:24;;;;;;;12.50;10.57;;;9.60;91.10;;;;;;5055111;28;21005;-60
2023/11/30 12:36:51;;;;;;;13.90;12.10;;;9.60;91.20;;;;;;5055372;28;20450;-60